sensor_id;sensor_type;location;lat;lon;timestamp;temperature;humidity
26954;DHT22;14508;50.924;11.600;2023-07-08T00:00:26;17.10;88.80
26954;DHT22;14508;50.924;11.600;2023-07-08T00:02:54;17.00;89.10
26954;DHT22;14508;50.924;11.600;2023-07-08T00:05:26;17.00;90.00
26954;DHT22;14508;50.924;11.600;2023-07-08T00:07:54;16.90;90.40
26954;DHT22;14508;50.924;11.600;2023-07-08T00:10:24;16.90;90.80
26954;DHT22;14508;50.924;11.600;2023-07-08T00:12:53;16.90;91.00
26954;DHT22;14508;50.924;11.600;2023-07-08T00:15:25;16.80;91.30
26954;DHT22;14508;50.924;11.600;2023-07-08T00:17:54;16.80;91.70
26954;DHT22;14508;50.924;11.600;2023-07-08T00:20:23;16.80;92.20
26954;DHT22;14508;50.924;11.600;2023-07-08T00:22:57;16.80;92.70
26954;DHT22;14508;50.924;11.600;2023-07-08T00:25:27;16.80;93.20
26954;DHT22;14508;50.924;11.600;2023-07-08T00:27:55;16.80;93.50
26954;DHT22;14508;50.924;11.600;2023-07-08T00:30:25;16.70;93.70
26954;DHT22;14508;50.924;11.600;2023-07-08T00:32:54;16.70;94.00
26954;DHT22;14508;50.924;11.600;2023-07-08T00:35:32;16.60;94.30
26954;DHT22;14508;50.924;11.600;2023-07-08T00:38:04;16.60;94.90
26954;DHT22;14508;50.924;11.600;2023-07-08T00:40:49;16.60;95.30
26954;DHT22;14508;50.924;11.600;2023-07-08T00:43:19;16.60;95.80
26954;DHT22;14508;50.924;11.600;2023-07-08T00:45:52;16.50;96.10
26954;DHT22;14508;50.924;11.600;2023-07-08T00:48:31;16.40;96.40
26954;DHT22;14508;50.924;11.600;2023-07-08T00:51:01;16.40;96.60
26954;DHT22;14508;50.924;11.600;2023-07-08T00:53:33;16.30;96.90
26954;DHT22;14508;50.924;11.600;2023-07-08T00:56:05;16.20;97.40
26954;DHT22;14508;50.924;11.600;2023-07-08T00:58:39;16.20;98.00
26954;DHT22;14508;50.924;11.600;2023-07-08T01:01:10;16.20;98.40
26954;DHT22;14508;50.924;11.600;2023-07-08T01:03:46;16.10;98.70
26954;DHT22;14508;50.924;11.600;2023-07-08T01:06:17;16.10;99.20
26954;DHT22;14508;50.924;11.600;2023-07-08T01:08:47;16.00;99.50
26954;DHT22;14508;50.924;11.600;2023-07-08T01:11:21;16.00;99.90
26954;DHT22;14508;50.924;11.600;2023-07-08T01:13:50;16.00;99.90
26954;DHT22;14508;50.924;11.600;2023-07-08T01:16:18;15.90;99.90
26954;DHT22;14508;50.924;11.600;2023-07-08T01:18:46;15.90;99.90
26954;DHT22;14508;50.924;11.600;2023-07-08T01:21:31;15.90;99.90
26954;DHT22;14508;50.924;11.600;2023-07-08T01:24:03;15.90;99.90
26954;DHT22;14508;50.924;11.600;2023-07-08T01:26:34;15.80;99.90
26954;DHT22;14508;50.924;11.600;2023-07-08T01:29:03;15.80;99.90
26954;DHT22;14508;50.924;11.600;2023-07-08T01:31:31;15.70;99.90
26954;DHT22;14508;50.924;11.600;2023-07-08T01:34:00;15.60;99.90
26954;DHT22;14508;50.924;11.600;2023-07-08T01:36:31;15.60;99.90
26954;DHT22;14508;50.924;11.600;2023-07-08T01:39:03;15.60;99.90
26954;DHT22;14508;50.924;11.600;2023-07-08T01:41:31;15.60;99.90
26954;DHT22;14508;50.924;11.600;2023-07-08T01:43:59;15.50;99.90
26954;DHT22;14508;50.924;11.600;2023-07-08T01:46:27;15.50;99.90
26954;DHT22;14508;50.924;11.600;2023-07-08T01:48:57;15.50;99.90
26954;DHT22;14508;50.924;11.600;2023-07-08T01:51:26;15.50;99.90
26954;DHT22;14508;50.924;11.600;2023-07-08T01:53:54;15.40;99.90
26954;DHT22;14508;50.924;11.600;2023-07-08T01:56:23;15.40;99.90
26954;DHT22;14508;50.924;11.600;2023-07-08T01:58:51;15.40;99.90
26954;DHT22;14508;50.924;11.600;2023-07-08T02:01:19;15.30;99.90
26954;DHT22;14508;50.924;11.600;2023-07-08T02:03:47;15.30;99.90
26954;DHT22;14508;50.924;11.600;2023-07-08T02:06:15;15.30;99.90
26954;DHT22;14508;50.924;11.600;2023-07-08T02:08:43;15.30;99.90
26954;DHT22;14508;50.924;11.600;2023-07-08T02:11:11;15.20;99.90
26954;DHT22;14508;50.924;11.600;2023-07-08T02:13:40;15.20;99.90
26954;DHT22;14508;50.924;11.600;2023-07-08T02:16:08;15.10;99.90
26954;DHT22;14508;50.924;11.600;2023-07-08T02:18:36;15.10;99.90
26954;DHT22;14508;50.924;11.600;2023-07-08T02:21:04;15.10;99.90
26954;DHT22;14508;50.924;11.600;2023-07-08T02:23:32;15.00;99.90
26954;DHT22;14508;50.924;11.600;2023-07-08T02:26:00;15.00;99.90
26954;DHT22;14508;50.924;11.600;2023-07-08T02:28:28;15.00;99.90
26954;DHT22;14508;50.924;11.600;2023-07-08T02:31:01;15.00;99.90
26954;DHT22;14508;50.924;11.600;2023-07-08T02:33:29;14.90;99.90
26954;DHT22;14508;50.924;11.600;2023-07-08T02:36:00;14.90;99.90
26954;DHT22;14508;50.924;11.600;2023-07-08T02:38:28;14.80;99.90
26954;DHT22;14508;50.924;11.600;2023-07-08T02:40:57;14.80;99.90
26954;DHT22;14508;50.924;11.600;2023-07-08T02:43:26;14.80;99.90
26954;DHT22;14508;50.924;11.600;2023-07-08T02:45:54;14.70;99.90
26954;DHT22;14508;50.924;11.600;2023-07-08T02:48:23;14.70;99.90
26954;DHT22;14508;50.924;11.600;2023-07-08T02:50:58;14.70;99.90
26954;DHT22;14508;50.924;11.600;2023-07-08T02:53:27;14.70;99.90
26954;DHT22;14508;50.924;11.600;2023-07-08T02:55:55;14.60;99.90
26954;DHT22;14508;50.924;11.600;2023-07-08T02:58:23;14.60;99.90
26954;DHT22;14508;50.924;11.600;2023-07-08T03:00:51;14.60;99.90
26954;DHT22;14508;50.924;11.600;2023-07-08T03:03:20;14.60;99.90
26954;DHT22;14508;50.924;11.600;2023-07-08T03:05:55;14.60;99.90
26954;DHT22;14508;50.924;11.600;2023-07-08T03:08:23;14.50;99.90
26954;DHT22;14508;50.924;11.600;2023-07-08T03:10:58;14.50;99.90
26954;DHT22;14508;50.924;11.600;2023-07-08T03:13:28;14.40;99.90
26954;DHT22;14508;50.924;11.600;2023-07-08T03:15:59;14.40;99.90
26954;DHT22;14508;50.924;11.600;2023-07-08T03:18:29;14.40;99.90
26954;DHT22;14508;50.924;11.600;2023-07-08T03:20:58;14.30;99.90
26954;DHT22;14508;50.924;11.600;2023-07-08T03:23:26;14.30;99.90
26954;DHT22;14508;50.924;11.600;2023-07-08T03:25:55;14.30;99.90
26954;DHT22;14508;50.924;11.600;2023-07-08T03:28:24;14.30;99.90
26954;DHT22;14508;50.924;11.600;2023-07-08T03:30:52;14.30;99.90
26954;DHT22;14508;50.924;11.600;2023-07-08T03:33:21;14.30;99.90
26954;DHT22;14508;50.924;11.600;2023-07-08T03:35:50;14.30;99.90
26954;DHT22;14508;50.924;11.600;2023-07-08T03:38:19;14.20;99.90
26954;DHT22;14508;50.924;11.600;2023-07-08T03:40:47;14.20;99.90
26954;DHT22;14508;50.924;11.600;2023-07-08T03:43:15;14.20;99.90
26954;DHT22;14508;50.924;11.600;2023-07-08T03:45:43;14.10;99.90
26954;DHT22;14508;50.924;11.600;2023-07-08T03:48:13;14.10;99.90
26954;DHT22;14508;50.924;11.600;2023-07-08T03:50:43;14.10;99.90
26954;DHT22;14508;50.924;11.600;2023-07-08T03:53:11;14.10;99.90
26954;DHT22;14508;50.924;11.600;2023-07-08T03:55:40;14.10;99.90
26954;DHT22;14508;50.924;11.600;2023-07-08T03:58:08;14.20;99.90
26954;DHT22;14508;50.924;11.600;2023-07-08T04:00:37;14.20;99.90
26954;DHT22;14508;50.924;11.600;2023-07-08T04:03:05;14.20;99.90
26954;DHT22;14508;50.924;11.600;2023-07-08T04:05:33;14.30;99.90
26954;DHT22;14508;50.924;11.600;2023-07-08T04:08:01;14.30;99.90
26954;DHT22;14508;50.924;11.600;2023-07-08T04:10:30;14.30;99.90
26954;DHT22;14508;50.924;11.600;2023-07-08T04:12:59;14.30;99.90
26954;DHT22;14508;50.924;11.600;2023-07-08T04:15:27;14.30;99.90
26954;DHT22;14508;50.924;11.600;2023-07-08T04:17:55;14.40;99.90
26954;DHT22;14508;50.924;11.600;2023-07-08T04:20:24;14.40;99.90
26954;DHT22;14508;50.924;11.600;2023-07-08T04:22:52;14.50;99.90
26954;DHT22;14508;50.924;11.600;2023-07-08T04:25:21;14.50;99.90
26954;DHT22;14508;50.924;11.600;2023-07-08T04:27:54;14.50;99.90
26954;DHT22;14508;50.924;11.600;2023-07-08T04:30:25;14.60;99.90
26954;DHT22;14508;50.924;11.600;2023-07-08T04:32:53;14.60;99.90
26954;DHT22;14508;50.924;11.600;2023-07-08T04:35:23;14.70;99.90
26954;DHT22;14508;50.924;11.600;2023-07-08T04:37:50;14.70;99.90
26954;DHT22;14508;50.924;11.600;2023-07-08T04:40:19;14.80;99.90
26954;DHT22;14508;50.924;11.600;2023-07-08T04:42:48;14.90;99.90
26954;DHT22;14508;50.924;11.600;2023-07-08T04:45:17;15.00;99.90
26954;DHT22;14508;50.924;11.600;2023-07-08T04:47:46;15.10;99.90
26954;DHT22;14508;50.924;11.600;2023-07-08T04:50:20;15.20;99.90
26954;DHT22;14508;50.924;11.600;2023-07-08T04:52:48;15.30;99.90
26954;DHT22;14508;50.924;11.600;2023-07-08T04:55:17;15.50;99.90
26954;DHT22;14508;50.924;11.600;2023-07-08T04:57:45;15.70;99.90
26954;DHT22;14508;50.924;11.600;2023-07-08T05:00:15;15.80;99.90
26954;DHT22;14508;50.924;11.600;2023-07-08T05:02:43;16.00;99.90
26954;DHT22;14508;50.924;11.600;2023-07-08T05:05:13;16.10;99.90
26954;DHT22;14508;50.924;11.600;2023-07-08T05:07:42;16.30;99.90
26954;DHT22;14508;50.924;11.600;2023-07-08T05:10:10;16.40;99.90
26954;DHT22;14508;50.924;11.600;2023-07-08T05:12:38;16.50;99.90
26954;DHT22;14508;50.924;11.600;2023-07-08T05:15:06;16.60;99.90
26954;DHT22;14508;50.924;11.600;2023-07-08T05:17:36;16.70;99.90
26954;DHT22;14508;50.924;11.600;2023-07-08T05:20:05;16.80;99.90
26954;DHT22;14508;50.924;11.600;2023-07-08T05:22:36;16.90;99.90
26954;DHT22;14508;50.924;11.600;2023-07-08T05:25:05;17.00;99.90
26954;DHT22;14508;50.924;11.600;2023-07-08T05:27:33;17.10;99.90
26954;DHT22;14508;50.924;11.600;2023-07-08T05:30:02;17.30;99.90
26954;DHT22;14508;50.924;11.600;2023-07-08T05:32:30;17.40;99.90
26954;DHT22;14508;50.924;11.600;2023-07-08T05:34:58;17.50;99.90
26954;DHT22;14508;50.924;11.600;2023-07-08T05:37:26;17.60;99.90
26954;DHT22;14508;50.924;11.600;2023-07-08T05:39:56;17.70;99.90
26954;DHT22;14508;50.924;11.600;2023-07-08T05:42:27;17.70;99.90
26954;DHT22;14508;50.924;11.600;2023-07-08T05:44:54;17.80;99.90
26954;DHT22;14508;50.924;11.600;2023-07-08T05:47:22;17.80;99.90
26954;DHT22;14508;50.924;11.600;2023-07-08T05:49:50;17.80;99.90
26954;DHT22;14508;50.924;11.600;2023-07-08T05:52:18;17.90;99.90
26954;DHT22;14508;50.924;11.600;2023-07-08T05:54:46;18.00;99.90
26954;DHT22;14508;50.924;11.600;2023-07-08T05:57:16;18.10;99.90
26954;DHT22;14508;50.924;11.600;2023-07-08T05:59:44;18.20;99.30
26954;DHT22;14508;50.924;11.600;2023-07-08T06:02:12;18.30;99.00
26954;DHT22;14508;50.924;11.600;2023-07-08T06:04:40;18.40;98.10
26954;DHT22;14508;50.924;11.600;2023-07-08T06:07:08;18.40;97.60
26954;DHT22;14508;50.924;11.600;2023-07-08T06:09:36;18.60;97.50
26954;DHT22;14508;50.924;11.600;2023-07-08T06:12:05;18.70;97.00
26954;DHT22;14508;50.924;11.600;2023-07-08T06:14:34;18.80;96.30
26954;DHT22;14508;50.924;11.600;2023-07-08T06:17:02;18.90;95.50
26954;DHT22;14508;50.924;11.600;2023-07-08T06:19:30;19.10;94.90
26954;DHT22;14508;50.924;11.600;2023-07-08T06:21:58;19.20;94.30
26954;DHT22;14508;50.924;11.600;2023-07-08T06:24:46;19.40;93.60
26954;DHT22;14508;50.924;11.600;2023-07-08T06:27:14;19.50;92.70
26954;DHT22;14508;50.924;11.600;2023-07-08T06:29:44;19.60;92.10
26954;DHT22;14508;50.924;11.600;2023-07-08T06:32:12;19.70;91.30
26954;DHT22;14508;50.924;11.600;2023-07-08T06:34:40;19.80;90.50
26954;DHT22;14508;50.924;11.600;2023-07-08T06:37:08;20.00;90.00
26954;DHT22;14508;50.924;11.600;2023-07-08T06:39:36;20.30;88.20
26954;DHT22;14508;50.924;11.600;2023-07-08T06:42:08;20.50;85.50
26954;DHT22;14508;50.924;11.600;2023-07-08T06:44:45;20.80;83.50
26954;DHT22;14508;50.924;11.600;2023-07-08T06:47:20;21.00;81.90
26954;DHT22;14508;50.924;11.600;2023-07-08T06:49:49;21.00;80.30
26954;DHT22;14508;50.924;11.600;2023-07-08T06:52:17;21.10;79.60
26954;DHT22;14508;50.924;11.600;2023-07-08T06:54:44;21.20;78.50
26954;DHT22;14508;50.924;11.600;2023-07-08T06:57:12;21.20;76.60
26954;DHT22;14508;50.924;11.600;2023-07-08T06:59:40;21.30;76.30
26954;DHT22;14508;50.924;11.600;2023-07-08T07:02:09;21.40;75.50
26954;DHT22;14508;50.924;11.600;2023-07-08T07:04:37;21.40;74.40
26954;DHT22;14508;50.924;11.600;2023-07-08T07:07:05;21.50;73.30
26954;DHT22;14508;50.924;11.600;2023-07-08T07:09:33;21.40;71.90
26954;DHT22;14508;50.924;11.600;2023-07-08T07:12:02;21.40;70.80
26954;DHT22;14508;50.924;11.600;2023-07-08T07:14:30;21.40;70.20
26954;DHT22;14508;50.924;11.600;2023-07-08T07:17:00;21.40;70.40
26954;DHT22;14508;50.924;11.600;2023-07-08T07:19:36;21.40;69.40
26954;DHT22;14508;50.924;11.600;2023-07-08T07:22:04;21.50;68.80
26954;DHT22;14508;50.924;11.600;2023-07-08T07:24:33;21.60;68.10
26954;DHT22;14508;50.924;11.600;2023-07-08T07:27:01;21.70;68.20
26954;DHT22;14508;50.924;11.600;2023-07-08T07:29:39;21.90;68.00
26954;DHT22;14508;50.924;11.600;2023-07-08T07:32:08;22.10;67.70
26954;DHT22;14508;50.924;11.600;2023-07-08T07:34:38;22.30;67.50
26954;DHT22;14508;50.924;11.600;2023-07-08T07:37:06;22.50;67.00
26954;DHT22;14508;50.924;11.600;2023-07-08T07:39:37;22.70;65.90
26954;DHT22;14508;50.924;11.600;2023-07-08T07:42:06;22.80;64.40
26954;DHT22;14508;50.924;11.600;2023-07-08T07:44:34;22.90;62.80
26954;DHT22;14508;50.924;11.600;2023-07-08T07:47:02;23.00;61.50
26954;DHT22;14508;50.924;11.600;2023-07-08T07:49:31;23.10;60.40
26954;DHT22;14508;50.924;11.600;2023-07-08T07:52:00;23.20;59.70
26954;DHT22;14508;50.924;11.600;2023-07-08T07:54:28;23.30;59.40
26954;DHT22;14508;50.924;11.600;2023-07-08T07:56:56;23.40;59.30
26954;DHT22;14508;50.924;11.600;2023-07-08T07:59:24;23.60;58.90
26954;DHT22;14508;50.924;11.600;2023-07-08T08:01:52;23.80;57.70
26954;DHT22;14508;50.924;11.600;2023-07-08T08:04:20;23.90;56.90
26954;DHT22;14508;50.924;11.600;2023-07-08T08:06:48;24.10;56.70
26954;DHT22;14508;50.924;11.600;2023-07-08T08:09:17;24.10;56.20
26954;DHT22;14508;50.924;11.600;2023-07-08T08:11:48;24.30;55.80
26954;DHT22;14508;50.924;11.600;2023-07-08T08:14:18;24.50;55.40
26954;DHT22;14508;50.924;11.600;2023-07-08T08:16:49;24.70;55.00
26954;DHT22;14508;50.924;11.600;2023-07-08T08:19:17;24.90;54.70
26954;DHT22;14508;50.924;11.600;2023-07-08T08:21:45;25.00;54.10
26954;DHT22;14508;50.924;11.600;2023-07-08T08:24:13;25.20;53.70
26954;DHT22;14508;50.924;11.600;2023-07-08T08:26:42;25.30;52.40
26954;DHT22;14508;50.924;11.600;2023-07-08T08:29:10;25.40;52.50
26954;DHT22;14508;50.924;11.600;2023-07-08T08:31:38;25.50;52.50
26954;DHT22;14508;50.924;11.600;2023-07-08T08:34:06;25.70;52.40
26954;DHT22;14508;50.924;11.600;2023-07-08T08:36:37;25.80;52.20
26954;DHT22;14508;50.924;11.600;2023-07-08T08:39:05;26.10;51.50
26954;DHT22;14508;50.924;11.600;2023-07-08T08:41:35;26.20;51.00
26954;DHT22;14508;50.924;11.600;2023-07-08T08:44:05;26.40;50.70
26954;DHT22;14508;50.924;11.600;2023-07-08T08:46:38;26.60;50.20
26954;DHT22;14508;50.924;11.600;2023-07-08T08:49:15;26.70;50.00
26954;DHT22;14508;50.924;11.600;2023-07-08T08:51:46;26.90;49.40
26954;DHT22;14508;50.924;11.600;2023-07-08T08:54:15;27.10;49.30
26954;DHT22;14508;50.924;11.600;2023-07-08T08:56:48;27.30;48.30
26954;DHT22;14508;50.924;11.600;2023-07-08T08:59:41;27.30;47.90
26954;DHT22;14508;50.924;11.600;2023-07-08T09:02:28;27.30;47.70
26954;DHT22;14508;50.924;11.600;2023-07-08T09:05:02;27.40;47.50
26954;DHT22;14508;50.924;11.600;2023-07-08T09:07:38;27.50;46.90
26954;DHT22;14508;50.924;11.600;2023-07-08T09:10:18;27.60;46.10
26954;DHT22;14508;50.924;11.600;2023-07-08T09:12:50;27.80;45.60
26954;DHT22;14508;50.924;11.600;2023-07-08T09:15:22;27.90;45.10
26954;DHT22;14508;50.924;11.600;2023-07-08T09:17:51;28.10;44.70
26954;DHT22;14508;50.924;11.600;2023-07-08T09:20:25;28.40;44.20
26954;DHT22;14508;50.924;11.600;2023-07-08T09:22:59;28.60;43.90
26954;DHT22;14508;50.924;11.600;2023-07-08T09:25:33;28.80;43.70
26954;DHT22;14508;50.924;11.600;2023-07-08T09:28:02;29.00;42.90
26954;DHT22;14508;50.924;11.600;2023-07-08T09:30:31;29.20;42.30
26954;DHT22;14508;50.924;11.600;2023-07-08T09:33:02;29.40;41.90
26954;DHT22;14508;50.924;11.600;2023-07-08T09:35:38;29.60;41.40
26954;DHT22;14508;50.924;11.600;2023-07-08T09:38:09;29.80;40.50
26954;DHT22;14508;50.924;11.600;2023-07-08T09:40:37;29.90;38.90
26954;DHT22;14508;50.924;11.600;2023-07-08T09:43:16;30.00;38.30
26954;DHT22;14508;50.924;11.600;2023-07-08T09:45:49;30.30;37.70
26954;DHT22;14508;50.924;11.600;2023-07-08T09:48:20;30.50;36.90
26954;DHT22;14508;50.924;11.600;2023-07-08T09:50:51;30.60;35.50
26954;DHT22;14508;50.924;11.600;2023-07-08T09:53:19;30.70;34.90
26954;DHT22;14508;50.924;11.600;2023-07-08T09:55:49;30.60;35.10
26954;DHT22;14508;50.924;11.600;2023-07-08T09:58:23;30.60;34.50
26954;DHT22;14508;50.924;11.600;2023-07-08T10:00:55;30.50;33.10
26954;DHT22;14508;50.924;11.600;2023-07-08T10:03:27;30.40;33.10
26954;DHT22;14508;50.924;11.600;2023-07-08T10:05:58;30.50;33.50
26954;DHT22;14508;50.924;11.600;2023-07-08T10:08:30;30.50;32.90
26954;DHT22;14508;50.924;11.600;2023-07-08T10:11:08;30.50;32.10
26954;DHT22;14508;50.924;11.600;2023-07-08T10:13:41;30.50;32.20
26954;DHT22;14508;50.924;11.600;2023-07-08T10:16:33;30.60;32.30
26954;DHT22;14508;50.924;11.600;2023-07-08T10:19:09;30.80;31.90
26954;DHT22;14508;50.924;11.600;2023-07-08T10:21:46;30.80;31.90
26954;DHT22;14508;50.924;11.600;2023-07-08T10:24:26;30.90;31.60
26954;DHT22;14508;50.924;11.600;2023-07-08T10:27:04;30.90;31.60
26954;DHT22;14508;50.924;11.600;2023-07-08T10:29:39;31.00;31.50
26954;DHT22;14508;50.924;11.600;2023-07-08T10:32:17;31.10;31.50
26954;DHT22;14508;50.924;11.600;2023-07-08T10:34:49;31.30;31.10
26954;DHT22;14508;50.924;11.600;2023-07-08T10:37:28;31.30;31.40
26954;DHT22;14508;50.924;11.600;2023-07-08T10:40:20;31.50;31.50
26954;DHT22;14508;50.924;11.600;2023-07-08T10:45:50;31.70;31.40
26954;DHT22;14508;50.924;11.600;2023-07-08T10:48:49;31.90;31.50
26954;DHT22;14508;50.924;11.600;2023-07-08T10:51:28;32.00;31.20
26954;DHT22;14508;50.924;11.600;2023-07-08T10:54:29;32.00;31.20
26954;DHT22;14508;50.924;11.600;2023-07-08T10:57:10;32.00;31.60
26954;DHT22;14508;50.924;11.600;2023-07-08T10:59:52;31.90;31.70
26954;DHT22;14508;50.924;11.600;2023-07-08T11:02:39;31.80;32.30
26954;DHT22;14508;50.924;11.600;2023-07-08T11:05:24;31.80;31.90
26954;DHT22;14508;50.924;11.600;2023-07-08T11:07:57;31.80;32.10
26954;DHT22;14508;50.924;11.600;2023-07-08T11:10:31;31.80;32.00
26954;DHT22;14508;50.924;11.600;2023-07-08T11:13:06;31.70;32.10
26954;DHT22;14508;50.924;11.600;2023-07-08T11:15:46;31.70;32.40
26954;DHT22;14508;50.924;11.600;2023-07-08T11:18:19;31.70;32.70
26954;DHT22;14508;50.924;11.600;2023-07-08T11:20:55;31.60;32.80
26954;DHT22;14508;50.924;11.600;2023-07-08T11:23:30;31.60;33.00
26954;DHT22;14508;50.924;11.600;2023-07-08T11:26:16;31.40;32.10
26954;DHT22;14508;50.924;11.600;2023-07-08T11:28:46;31.20;32.50
26954;DHT22;14508;50.924;11.600;2023-07-08T11:31:16;31.10;32.80
26954;DHT22;14508;50.924;11.600;2023-07-08T11:33:45;31.20;33.20
26954;DHT22;14508;50.924;11.600;2023-07-08T11:36:16;31.20;32.80
26954;DHT22;14508;50.924;11.600;2023-07-08T11:38:48;31.20;33.20
26954;DHT22;14508;50.924;11.600;2023-07-08T11:41:19;31.30;33.30
26954;DHT22;14508;50.924;11.600;2023-07-08T11:43:50;31.30;33.20
26954;DHT22;14508;50.924;11.600;2023-07-08T11:46:20;31.40;33.30
26954;DHT22;14508;50.924;11.600;2023-07-08T11:48:51;31.60;33.10
26954;DHT22;14508;50.924;11.600;2023-07-08T11:51:24;31.70;32.80
26954;DHT22;14508;50.924;11.600;2023-07-08T11:54:11;31.70;32.60
26954;DHT22;14508;50.924;11.600;2023-07-08T11:56:48;31.60;32.40
26954;DHT22;14508;50.924;11.600;2023-07-08T11:59:19;31.50;32.60
26954;DHT22;14508;50.924;11.600;2023-07-08T12:01:52;31.50;32.50
26954;DHT22;14508;50.924;11.600;2023-07-08T12:04:26;31.60;32.70
26954;DHT22;14508;50.924;11.600;2023-07-08T12:07:06;31.60;32.40
26954;DHT22;14508;50.924;11.600;2023-07-08T12:09:38;31.60;32.50
26954;DHT22;14508;50.924;11.600;2023-07-08T12:12:14;31.70;32.30
26954;DHT22;14508;50.924;11.600;2023-07-08T12:14:42;31.80;32.00
26954;DHT22;14508;50.924;11.600;2023-07-08T12:17:12;31.90;32.00
26954;DHT22;14508;50.924;11.600;2023-07-08T12:19:42;31.90;31.80
26954;DHT22;14508;50.924;11.600;2023-07-08T12:22:12;31.90;31.10
26954;DHT22;14508;50.924;11.600;2023-07-08T12:24:41;31.90;31.00
26954;DHT22;14508;50.924;11.600;2023-07-08T12:27:09;32.00;30.70
26954;DHT22;14508;50.924;11.600;2023-07-08T12:29:40;32.00;30.90
26954;DHT22;14508;50.924;11.600;2023-07-08T12:32:11;32.10;31.40
26954;DHT22;14508;50.924;11.600;2023-07-08T12:34:40;32.20;30.90
26954;DHT22;14508;50.924;11.600;2023-07-08T12:37:12;32.10;30.50
26954;DHT22;14508;50.924;11.600;2023-07-08T12:39:41;32.20;29.90
26954;DHT22;14508;50.924;11.600;2023-07-08T12:42:11;32.10;29.90
26954;DHT22;14508;50.924;11.600;2023-07-08T12:44:39;32.10;30.00
26954;DHT22;14508;50.924;11.600;2023-07-08T12:47:10;32.10;30.30
26954;DHT22;14508;50.924;11.600;2023-07-08T12:49:38;32.10;30.00
26954;DHT22;14508;50.924;11.600;2023-07-08T12:52:20;32.10;30.00
26954;DHT22;14508;50.924;11.600;2023-07-08T12:54:51;32.10;29.80
26954;DHT22;14508;50.924;11.600;2023-07-08T12:57:19;32.10;30.00
26954;DHT22;14508;50.924;11.600;2023-07-08T12:59:47;32.10;30.10
26954;DHT22;14508;50.924;11.600;2023-07-08T13:02:17;32.00;29.90
26954;DHT22;14508;50.924;11.600;2023-07-08T13:04:49;32.00;29.90
26954;DHT22;14508;50.924;11.600;2023-07-08T13:07:35;32.00;30.00
26954;DHT22;14508;50.924;11.600;2023-07-08T13:10:05;32.10;30.40
26954;DHT22;14508;50.924;11.600;2023-07-08T13:12:36;32.20;30.60
26954;DHT22;14508;50.924;11.600;2023-07-08T13:15:12;32.30;30.90
26954;DHT22;14508;50.924;11.600;2023-07-08T13:17:40;32.40;31.40
26954;DHT22;14508;50.924;11.600;2023-07-08T13:20:13;32.60;31.30
26954;DHT22;14508;50.924;11.600;2023-07-08T13:22:54;32.60;31.20
26954;DHT22;14508;50.924;11.600;2023-07-08T13:25:27;32.70;30.80
26954;DHT22;14508;50.924;11.600;2023-07-08T13:27:57;32.70;31.00
26954;DHT22;14508;50.924;11.600;2023-07-08T13:30:28;32.70;30.90
26954;DHT22;14508;50.924;11.600;2023-07-08T13:32:57;32.60;30.70
26954;DHT22;14508;50.924;11.600;2023-07-08T13:35:34;32.60;30.60
26954;DHT22;14508;50.924;11.600;2023-07-08T13:38:05;32.60;30.30
26954;DHT22;14508;50.924;11.600;2023-07-08T13:40:33;32.60;30.30
26954;DHT22;14508;50.924;11.600;2023-07-08T13:43:01;32.60;30.50
26954;DHT22;14508;50.924;11.600;2023-07-08T13:45:31;32.70;30.60
26954;DHT22;14508;50.924;11.600;2023-07-08T13:48:03;32.80;30.70
26954;DHT22;14508;50.924;11.600;2023-07-08T13:50:48;32.80;30.80
26954;DHT22;14508;50.924;11.600;2023-07-08T13:53:22;32.80;30.90
26954;DHT22;14508;50.924;11.600;2023-07-08T13:55:59;32.80;30.80
26954;DHT22;14508;50.924;11.600;2023-07-08T13:58:29;32.90;30.50
26954;DHT22;14508;50.924;11.600;2023-07-08T14:00:58;32.90;30.60
26954;DHT22;14508;50.924;11.600;2023-07-08T14:03:26;33.00;30.10
26954;DHT22;14508;50.924;11.600;2023-07-08T14:05:55;32.90;29.90
26954;DHT22;14508;50.924;11.600;2023-07-08T14:08:24;32.80;30.00
26954;DHT22;14508;50.924;11.600;2023-07-08T14:10:53;32.80;30.00
26954;DHT22;14508;50.924;11.600;2023-07-08T14:13:21;32.80;30.10
26954;DHT22;14508;50.924;11.600;2023-07-08T14:15:49;32.80;29.90
26954;DHT22;14508;50.924;11.600;2023-07-08T14:18:17;32.80;30.00
26954;DHT22;14508;50.924;11.600;2023-07-08T14:20:45;32.80;29.90
26954;DHT22;14508;50.924;11.600;2023-07-08T14:23:13;32.80;30.20
26954;DHT22;14508;50.924;11.600;2023-07-08T14:25:42;32.80;30.30
26954;DHT22;14508;50.924;11.600;2023-07-08T14:28:10;32.80;30.30
26954;DHT22;14508;50.924;11.600;2023-07-08T14:30:43;32.90;30.30
26954;DHT22;14508;50.924;11.600;2023-07-08T14:33:12;33.00;30.20
26954;DHT22;14508;50.924;11.600;2023-07-08T14:35:41;32.90;30.10
26954;DHT22;14508;50.924;11.600;2023-07-08T14:38:10;32.90;29.90
26954;DHT22;14508;50.924;11.600;2023-07-08T14:40:40;32.90;29.90
26954;DHT22;14508;50.924;11.600;2023-07-08T14:43:16;32.90;30.20
26954;DHT22;14508;50.924;11.600;2023-07-08T14:45:49;33.00;30.50
26954;DHT22;14508;50.924;11.600;2023-07-08T14:48:17;33.00;30.70
26954;DHT22;14508;50.924;11.600;2023-07-08T14:50:45;33.10;30.70
26954;DHT22;14508;50.924;11.600;2023-07-08T14:53:13;33.20;30.70
26954;DHT22;14508;50.924;11.600;2023-07-08T14:55:42;33.20;30.50
26954;DHT22;14508;50.924;11.600;2023-07-08T14:58:19;33.30;30.30
26954;DHT22;14508;50.924;11.600;2023-07-08T15:00:49;33.30;30.00
26954;DHT22;14508;50.924;11.600;2023-07-08T15:03:17;33.30;30.10
26954;DHT22;14508;50.924;11.600;2023-07-08T15:05:45;33.30;30.40
26954;DHT22;14508;50.924;11.600;2023-07-08T15:08:14;33.40;30.00
26954;DHT22;14508;50.924;11.600;2023-07-08T15:10:45;33.40;30.00
26954;DHT22;14508;50.924;11.600;2023-07-08T15:13:17;33.50;29.90
26954;DHT22;14508;50.924;11.600;2023-07-08T15:15:46;33.50;30.10
26954;DHT22;14508;50.924;11.600;2023-07-08T15:18:16;33.60;30.10
26954;DHT22;14508;50.924;11.600;2023-07-08T15:20:46;33.90;30.10
26954;DHT22;14508;50.924;11.600;2023-07-08T15:23:14;34.20;29.90
26954;DHT22;14508;50.924;11.600;2023-07-08T15:25:44;34.40;29.50
26954;DHT22;14508;50.924;11.600;2023-07-08T15:28:17;34.60;29.40
26954;DHT22;14508;50.924;11.600;2023-07-08T15:30:46;34.90;29.40
26954;DHT22;14508;50.924;11.600;2023-07-08T15:33:15;35.30;29.50
26954;DHT22;14508;50.924;11.600;2023-07-08T15:35:43;35.70;29.50
26954;DHT22;14508;50.924;11.600;2023-07-08T15:38:11;36.10;29.20
26954;DHT22;14508;50.924;11.600;2023-07-08T15:40:40;36.50;29.10